sensor_id;sensor_type;location;lat;lon;timestamp;P1;durP1;ratioP1;P2;durP2;ratioP2
13114;SDS011;6623;52.120;8.660;2022-08-01T00:01:13;5.13;;;4.20;;
13114;SDS011;6623;52.120;8.660;2022-08-01T00:03:39;4.80;;;4.10;;
13114;SDS011;6623;52.120;8.660;2022-08-01T00:06:05;5.77;;;3.77;;
13114;SDS011;6623;52.120;8.660;2022-08-01T00:08:31;3.97;;;3.50;;
13114;SDS011;6623;52.120;8.660;2022-08-01T00:10:57;5.13;;;3.60;;
13114;SDS011;6623;52.120;8.660;2022-08-01T00:13:23;8.87;;;3.60;;
13114;SDS011;6623;52.120;8.660;2022-08-01T00:15:49;5.33;;;3.23;;
13114;SDS011;6623;52.120;8.660;2022-08-01T00:18:14;4.40;;;3.43;;
13114;SDS011;6623;52.120;8.660;2022-08-01T00:20:40;4.37;;;3.67;;
13114;SDS011;6623;52.120;8.660;2022-08-01T00:23:06;4.87;;;2.97;;
13114;SDS011;6623;52.120;8.660;2022-08-01T00:25:32;4.67;;;3.27;;
13114;SDS011;6623;52.120;8.660;2022-08-01T00:27:58;4.33;;;3.13;;
13114;SDS011;6623;52.120;8.660;2022-08-01T00:30:24;4.47;;;3.27;;
13114;SDS011;6623;52.120;8.660;2022-08-01T00:32:50;5.07;;;3.10;;
13114;SDS011;6623;52.120;8.660;2022-08-01T00:35:16;4.33;;;3.13;;
13114;SDS011;6623;52.120;8.660;2022-08-01T00:37:42;7.50;;;3.53;;
13114;SDS011;6623;52.120;8.660;2022-08-01T00:40:12;5.87;;;3.47;;
13114;SDS011;6623;52.120;8.660;2022-08-01T00:42:40;4.70;;;3.23;;
13114;SDS011;6623;52.120;8.660;2022-08-01T00:45:06;5.13;;;3.27;;
13114;SDS011;6623;52.120;8.660;2022-08-01T00:47:33;4.10;;;3.53;;
13114;SDS011;6623;52.120;8.660;2022-08-01T00:49:58;6.00;;;3.40;;
13114;SDS011;6623;52.120;8.660;2022-08-01T00:52:24;5.27;;;3.50;;
13114;SDS011;6623;52.120;8.660;2022-08-01T00:54:51;5.67;;;3.80;;
13114;SDS011;6623;52.120;8.660;2022-08-01T00:57:17;5.13;;;3.67;;
13114;SDS011;6623;52.120;8.660;2022-08-01T00:59:43;6.77;;;3.67;;
13114;SDS011;6623;52.120;8.660;2022-08-01T01:02:09;7.83;;;3.80;;
13114;SDS011;6623;52.120;8.660;2022-08-01T01:04:35;7.03;;;3.83;;
13114;SDS011;6623;52.120;8.660;2022-08-01T01:07:13;5.63;;;3.47;;
13114;SDS011;6623;52.120;8.660;2022-08-01T01:09:44;5.10;;;3.90;;
13114;SDS011;6623;52.120;8.660;2022-08-01T01:14:54;4.47;;;3.77;;
13114;SDS011;6623;52.120;8.660;2022-08-01T01:17:23;8.70;;;4.07;;
13114;SDS011;6623;52.120;8.660;2022-08-01T01:19:51;5.47;;;3.80;;
13114;SDS011;6623;52.120;8.660;2022-08-01T01:22:21;7.53;;;4.17;;
13114;SDS011;6623;52.120;8.660;2022-08-01T01:29:58;9.60;;;4.33;;
13114;SDS011;6623;52.120;8.660;2022-08-01T01:34:54;4.53;;;3.40;;
13114;SDS011;6623;52.120;8.660;2022-08-01T01:37:21;7.17;;;3.00;;
13114;SDS011;6623;52.120;8.660;2022-08-01T01:39:49;5.83;;;3.53;;
13114;SDS011;6623;52.120;8.660;2022-08-01T01:42:16;5.23;;;3.20;;
13114;SDS011;6623;52.120;8.660;2022-08-01T01:44:43;6.33;;;3.50;;
13114;SDS011;6623;52.120;8.660;2022-08-01T01:47:09;5.97;;;3.10;;
13114;SDS011;6623;52.120;8.660;2022-08-01T01:49:35;11.53;;;3.40;;
13114;SDS011;6623;52.120;8.660;2022-08-01T01:52:01;5.27;;;3.10;;
13114;SDS011;6623;52.120;8.660;2022-08-01T01:54:33;4.00;;;2.93;;
13114;SDS011;6623;52.120;8.660;2022-08-01T01:57:00;6.90;;;3.03;;
13114;SDS011;6623;52.120;8.660;2022-08-01T01:59:28;6.07;;;2.80;;
13114;SDS011;6623;52.120;8.660;2022-08-01T02:01:57;3.53;;;2.20;;
13114;SDS011;6623;52.120;8.660;2022-08-01T02:04:24;3.87;;;2.53;;
13114;SDS011;6623;52.120;8.660;2022-08-01T02:06:51;5.23;;;2.97;;
13114;SDS011;6623;52.120;8.660;2022-08-01T02:09:18;3.00;;;2.50;;
13114;SDS011;6623;52.120;8.660;2022-08-01T02:11:46;3.27;;;2.73;;
13114;SDS011;6623;52.120;8.660;2022-08-01T02:14:12;3.77;;;2.53;;
13114;SDS011;6623;52.120;8.660;2022-08-01T02:16:39;2.93;;;2.57;;
13114;SDS011;6623;52.120;8.660;2022-08-01T02:19:06;3.20;;;2.60;;
13114;SDS011;6623;52.120;8.660;2022-08-01T02:21:46;4.20;;;2.60;;
13114;SDS011;6623;52.120;8.660;2022-08-01T02:26:44;3.47;;;2.40;;
13114;SDS011;6623;52.120;8.660;2022-08-01T02:29:13;5.70;;;2.30;;
13114;SDS011;6623;52.120;8.660;2022-08-01T02:31:41;4.30;;;2.33;;
13114;SDS011;6623;52.120;8.660;2022-08-01T02:34:09;6.30;;;2.77;;
13114;SDS011;6623;52.120;8.660;2022-08-01T02:36:38;6.73;;;2.83;;
13114;SDS011;6623;52.120;8.660;2022-08-01T02:39:11;6.03;;;2.73;;
13114;SDS011;6623;52.120;8.660;2022-08-01T02:41:39;5.57;;;2.50;;
13114;SDS011;6623;52.120;8.660;2022-08-01T02:44:07;4.80;;;2.80;;
13114;SDS011;6623;52.120;8.660;2022-08-01T02:46:35;4.70;;;2.90;;
13114;SDS011;6623;52.120;8.660;2022-08-01T02:49:02;4.53;;;2.77;;
13114;SDS011;6623;52.120;8.660;2022-08-01T02:51:29;4.13;;;2.77;;
13114;SDS011;6623;52.120;8.660;2022-08-01T02:53:56;3.07;;;2.40;;
13114;SDS011;6623;52.120;8.660;2022-08-01T02:56:23;3.90;;;2.37;;
13114;SDS011;6623;52.120;8.660;2022-08-01T02:58:49;4.50;;;2.80;;
13114;SDS011;6623;52.120;8.660;2022-08-01T03:01:16;3.77;;;2.30;;
13114;SDS011;6623;52.120;8.660;2022-08-01T03:03:43;3.20;;;2.30;;
13114;SDS011;6623;52.120;8.660;2022-08-01T03:06:09;5.70;;;2.60;;
13114;SDS011;6623;52.120;8.660;2022-08-01T03:08:36;3.23;;;2.50;;
13114;SDS011;6623;52.120;8.660;2022-08-01T03:11:02;3.77;;;2.30;;
13114;SDS011;6623;52.120;8.660;2022-08-01T03:13:29;4.70;;;2.90;;
13114;SDS011;6623;52.120;8.660;2022-08-01T03:15:55;3.40;;;2.77;;
13114;SDS011;6623;52.120;8.660;2022-08-01T03:18:21;2.90;;;2.27;;
13114;SDS011;6623;52.120;8.660;2022-08-01T03:20:50;2.80;;;2.50;;
13114;SDS011;6623;52.120;8.660;2022-08-01T03:23:16;4.87;;;2.63;;
13114;SDS011;6623;52.120;8.660;2022-08-01T03:25:43;6.27;;;2.37;;
13114;SDS011;6623;52.120;8.660;2022-08-01T03:28:12;4.83;;;2.40;;
13114;SDS011;6623;52.120;8.660;2022-08-01T03:30:38;4.23;;;2.60;;
13114;SDS011;6623;52.120;8.660;2022-08-01T03:33:05;4.47;;;2.40;;
13114;SDS011;6623;52.120;8.660;2022-08-01T03:35:39;3.00;;;2.60;;
13114;SDS011;6623;52.120;8.660;2022-08-01T03:38:07;3.77;;;2.83;;
13114;SDS011;6623;52.120;8.660;2022-08-01T03:40:36;4.83;;;3.10;;
13114;SDS011;6623;52.120;8.660;2022-08-01T03:43:04;3.50;;;2.80;;
13114;SDS011;6623;52.120;8.660;2022-08-01T03:45:34;5.00;;;2.87;;
13114;SDS011;6623;52.120;8.660;2022-08-01T03:48:17;3.27;;;2.97;;
13114;SDS011;6623;52.120;8.660;2022-08-01T03:50:44;9.93;;;3.00;;
13114;SDS011;6623;52.120;8.660;2022-08-01T03:53:11;4.40;;;3.23;;
13114;SDS011;6623;52.120;8.660;2022-08-01T03:55:38;4.73;;;3.27;;
13114;SDS011;6623;52.120;8.660;2022-08-01T03:58:04;5.93;;;3.77;;
13114;SDS011;6623;52.120;8.660;2022-08-01T04:00:31;5.33;;;3.93;;
13114;SDS011;6623;52.120;8.660;2022-08-01T04:02:57;9.07;;;4.30;;
13114;SDS011;6623;52.120;8.660;2022-08-01T04:05:23;6.73;;;4.40;;
13114;SDS011;6623;52.120;8.660;2022-08-01T04:07:50;6.63;;;4.33;;
13114;SDS011;6623;52.120;8.660;2022-08-01T04:10:21;10.30;;;4.10;;
13114;SDS011;6623;52.120;8.660;2022-08-01T04:12:47;6.17;;;4.50;;
13114;SDS011;6623;52.120;8.660;2022-08-01T04:15:13;11.33;;;4.43;;
13114;SDS011;6623;52.120;8.660;2022-08-01T04:17:39;8.17;;;5.00;;
13114;SDS011;6623;52.120;8.660;2022-08-01T04:20:05;7.67;;;4.97;;
13114;SDS011;6623;52.120;8.660;2022-08-01T04:22:32;6.50;;;5.10;;
13114;SDS011;6623;52.120;8.660;2022-08-01T04:24:58;7.03;;;4.60;;
13114;SDS011;6623;52.120;8.660;2022-08-01T04:27:27;6.07;;;4.30;;
13114;SDS011;6623;52.120;8.660;2022-08-01T04:29:54;9.53;;;4.80;;
13114;SDS011;6623;52.120;8.660;2022-08-01T04:32:21;10.67;;;5.07;;
13114;SDS011;6623;52.120;8.660;2022-08-01T04:34:49;6.50;;;4.83;;
13114;SDS011;6623;52.120;8.660;2022-08-01T04:37:16;6.10;;;4.67;;
13114;SDS011;6623;52.120;8.660;2022-08-01T04:39:42;6.20;;;4.27;;
13114;SDS011;6623;52.120;8.660;2022-08-01T04:42:09;6.87;;;5.00;;
13114;SDS011;6623;52.120;8.660;2022-08-01T04:44:35;9.43;;;4.87;;
13114;SDS011;6623;52.120;8.660;2022-08-01T04:47:02;8.00;;;4.97;;
13114;SDS011;6623;52.120;8.660;2022-08-01T04:49:33;8.43;;;5.50;;
13114;SDS011;6623;52.120;8.660;2022-08-01T04:52:00;11.40;;;5.23;;
13114;SDS011;6623;52.120;8.660;2022-08-01T04:54:26;8.57;;;5.70;;
13114;SDS011;6623;52.120;8.660;2022-08-01T04:56:53;10.27;;;5.47;;
13114;SDS011;6623;52.120;8.660;2022-08-01T04:59:23;7.93;;;5.97;;
13114;SDS011;6623;52.120;8.660;2022-08-01T05:02:05;7.87;;;5.53;;
13114;SDS011;6623;52.120;8.660;2022-08-01T05:04:32;11.47;;;6.20;;
13114;SDS011;6623;52.120;8.660;2022-08-01T05:06:58;8.80;;;5.70;;
13114;SDS011;6623;52.120;8.660;2022-08-01T05:09:24;10.83;;;5.80;;
13114;SDS011;6623;52.120;8.660;2022-08-01T05:11:50;9.57;;;5.57;;
13114;SDS011;6623;52.120;8.660;2022-08-01T05:14:16;8.73;;;6.20;;
13114;SDS011;6623;52.120;8.660;2022-08-01T05:16:42;9.07;;;5.70;;
13114;SDS011;6623;52.120;8.660;2022-08-01T05:19:08;7.53;;;5.50;;
13114;SDS011;6623;52.120;8.660;2022-08-01T05:21:34;7.37;;;4.93;;
13114;SDS011;6623;52.120;8.660;2022-08-01T05:24:00;7.20;;;5.23;;
13114;SDS011;6623;52.120;8.660;2022-08-01T05:26:27;6.60;;;5.10;;
13114;SDS011;6623;52.120;8.660;2022-08-01T05:28:53;7.50;;;4.70;;
13114;SDS011;6623;52.120;8.660;2022-08-01T05:31:19;7.30;;;4.63;;
13114;SDS011;6623;52.120;8.660;2022-08-01T05:33:45;8.83;;;5.10;;
13114;SDS011;6623;52.120;8.660;2022-08-01T05:36:11;6.27;;;4.53;;
13114;SDS011;6623;52.120;8.660;2022-08-01T05:38:37;5.27;;;4.43;;
13114;SDS011;6623;52.120;8.660;2022-08-01T05:41:03;6.03;;;4.40;;
13114;SDS011;6623;52.120;8.660;2022-08-01T05:43:29;6.63;;;4.13;;
13114;SDS011;6623;52.120;8.660;2022-08-01T05:45:55;5.67;;;4.47;;
13114;SDS011;6623;52.120;8.660;2022-08-01T05:48:21;6.30;;;4.83;;
13114;SDS011;6623;52.120;8.660;2022-08-01T05:50:47;6.50;;;4.47;;
13114;SDS011;6623;52.120;8.660;2022-08-01T05:53:13;6.80;;;4.53;;
13114;SDS011;6623;52.120;8.660;2022-08-01T05:55:39;5.97;;;4.53;;
13114;SDS011;6623;52.120;8.660;2022-08-01T05:58:05;6.30;;;4.60;;
13114;SDS011;6623;52.120;8.660;2022-08-01T06:00:31;5.37;;;4.63;;
13114;SDS011;6623;52.120;8.660;2022-08-01T06:02:57;6.77;;;4.50;;
13114;SDS011;6623;52.120;8.660;2022-08-01T06:05:23;4.53;;;4.07;;
13114;SDS011;6623;52.120;8.660;2022-08-01T06:07:49;6.73;;;4.20;;
13114;SDS011;6623;52.120;8.660;2022-08-01T06:10:15;8.27;;;3.93;;
13114;SDS011;6623;52.120;8.660;2022-08-01T06:12:40;9.57;;;4.07;;
13114;SDS011;6623;52.120;8.660;2022-08-01T06:15:07;5.17;;;3.80;;
13114;SDS011;6623;52.120;8.660;2022-08-01T06:17:33;5.13;;;3.50;;
13114;SDS011;6623;52.120;8.660;2022-08-01T06:19:59;4.93;;;3.40;;
13114;SDS011;6623;52.120;8.660;2022-08-01T06:22:25;5.07;;;3.60;;
13114;SDS011;6623;52.120;8.660;2022-08-01T06:24:51;3.77;;;3.13;;
13114;SDS011;6623;52.120;8.660;2022-08-01T06:27:17;7.33;;;3.40;;
13114;SDS011;6623;52.120;8.660;2022-08-01T06:29:44;4.63;;;3.60;;
13114;SDS011;6623;52.120;8.660;2022-08-01T06:32:10;4.93;;;3.30;;
13114;SDS011;6623;52.120;8.660;2022-08-01T06:34:36;5.20;;;3.57;;
13114;SDS011;6623;52.120;8.660;2022-08-01T06:37:01;3.87;;;3.10;;
13114;SDS011;6623;52.120;8.660;2022-08-01T06:39:27;3.37;;;2.67;;
13114;SDS011;6623;52.120;8.660;2022-08-01T06:41:53;2.80;;;2.47;;
13114;SDS011;6623;52.120;8.660;2022-08-01T06:44:19;4.43;;;2.30;;
13114;SDS011;6623;52.120;8.660;2022-08-01T06:46:45;2.00;;;1.80;;
13114;SDS011;6623;52.120;8.660;2022-08-01T06:49:11;3.60;;;2.20;;
13114;SDS011;6623;52.120;8.660;2022-08-01T06:51:37;2.77;;;2.00;;
13114;SDS011;6623;52.120;8.660;2022-08-01T06:54:03;3.80;;;2.33;;
13114;SDS011;6623;52.120;8.660;2022-08-01T06:56:29;4.63;;;1.90;;
13114;SDS011;6623;52.120;8.660;2022-08-01T06:58:55;4.37;;;1.90;;
13114;SDS011;6623;52.120;8.660;2022-08-01T07:01:26;5.20;;;1.77;;
13114;SDS011;6623;52.120;8.660;2022-08-01T07:03:51;2.50;;;2.03;;
13114;SDS011;6623;52.120;8.660;2022-08-01T07:06:18;3.00;;;2.40;;
13114;SDS011;6623;52.120;8.660;2022-08-01T07:08:44;1.67;;;1.50;;
13114;SDS011;6623;52.120;8.660;2022-08-01T07:11:10;1.73;;;1.50;;
13114;SDS011;6623;52.120;8.660;2022-08-01T07:13:36;1.70;;;1.57;;
13114;SDS011;6623;52.120;8.660;2022-08-01T07:16:02;1.67;;;1.50;;
13114;SDS011;6623;52.120;8.660;2022-08-01T07:18:28;2.80;;;1.70;;
13114;SDS011;6623;52.120;8.660;2022-08-01T07:20:54;6.60;;;1.83;;
13114;SDS011;6623;52.120;8.660;2022-08-01T07:23:20;3.93;;;1.70;;
13114;SDS011;6623;52.120;8.660;2022-08-01T07:25:46;2.90;;;1.60;;
13114;SDS011;6623;52.120;8.660;2022-08-01T07:28:14;1.80;;;1.47;;
13114;SDS011;6623;52.120;8.660;2022-08-01T07:30:40;2.00;;;1.43;;
13114;SDS011;6623;52.120;8.660;2022-08-01T07:33:07;3.57;;;1.60;;
13114;SDS011;6623;52.120;8.660;2022-08-01T07:35:33;2.17;;;1.60;;
13114;SDS011;6623;52.120;8.660;2022-08-01T07:38:03;1.97;;;1.47;;
13114;SDS011;6623;52.120;8.660;2022-08-01T07:40:30;4.33;;;1.57;;
13114;SDS011;6623;52.120;8.660;2022-08-01T07:42:56;3.33;;;1.70;;
13114;SDS011;6623;52.120;8.660;2022-08-01T07:45:22;1.67;;;1.43;;
13114;SDS011;6623;52.120;8.660;2022-08-01T07:47:48;1.80;;;1.43;;
13114;SDS011;6623;52.120;8.660;2022-08-01T07:50:16;1.87;;;1.50;;
13114;SDS011;6623;52.120;8.660;2022-08-01T07:52:42;2.07;;;1.50;;
13114;SDS011;6623;52.120;8.660;2022-08-01T07:55:09;3.57;;;1.70;;
13114;SDS011;6623;52.120;8.660;2022-08-01T07:57:35;2.13;;;1.30;;
13114;SDS011;6623;52.120;8.660;2022-08-01T08:00:03;1.60;;;1.20;;
13114;SDS011;6623;52.120;8.660;2022-08-01T08:02:30;3.63;;;1.50;;
13114;SDS011;6623;52.120;8.660;2022-08-01T08:04:56;2.10;;;1.40;;
13114;SDS011;6623;52.120;8.660;2022-08-01T08:07:22;3.50;;;1.50;;
13114;SDS011;6623;52.120;8.660;2022-08-01T08:09:51;1.40;;;1.30;;
13114;SDS011;6623;52.120;8.660;2022-08-01T08:12:17;3.90;;;1.30;;
13114;SDS011;6623;52.120;8.660;2022-08-01T08:14:43;2.90;;;1.20;;
13114;SDS011;6623;52.120;8.660;2022-08-01T08:17:09;1.40;;;1.20;;
13114;SDS011;6623;52.120;8.660;2022-08-01T08:19:35;1.40;;;1.30;;
13114;SDS011;6623;52.120;8.660;2022-08-01T08:22:03;4.00;;;1.47;;
13114;SDS011;6623;52.120;8.660;2022-08-01T08:24:32;2.03;;;1.20;;
13114;SDS011;6623;52.120;8.660;2022-08-01T08:26:59;2.20;;;1.37;;
13114;SDS011;6623;52.120;8.660;2022-08-01T08:29:29;2.40;;;1.50;;
13114;SDS011;6623;52.120;8.660;2022-08-01T08:31:57;2.73;;;1.20;;
13114;SDS011;6623;52.120;8.660;2022-08-01T08:34:26;1.53;;;0.83;;
13114;SDS011;6623;52.120;8.660;2022-08-01T08:36:52;1.37;;;0.83;;
13114;SDS011;6623;52.120;8.660;2022-08-01T08:39:25;0.70;;;0.70;;
13114;SDS011;6623;52.120;8.660;2022-08-01T08:41:51;1.23;;;0.87;;
13114;SDS011;6623;52.120;8.660;2022-08-01T08:44:17;1.20;;;0.77;;
13114;SDS011;6623;52.120;8.660;2022-08-01T08:46:51;0.70;;;0.57;;
13114;SDS011;6623;52.120;8.660;2022-08-01T08:49:25;2.10;;;0.67;;
13114;SDS011;6623;52.120;8.660;2022-08-01T08:51:51;0.70;;;0.70;;
13114;SDS011;6623;52.120;8.660;2022-08-01T08:54:21;1.53;;;0.83;;
13114;SDS011;6623;52.120;8.660;2022-08-01T08:56:49;0.80;;;0.63;;
13114;SDS011;6623;52.120;8.660;2022-08-01T08:59:16;0.60;;;0.60;;
13114;SDS011;6623;52.120;8.660;2022-08-01T09:01:42;2.30;;;0.80;;
13114;SDS011;6623;52.120;8.660;2022-08-01T09:04:09;1.13;;;0.60;;
13114;SDS011;6623;52.120;8.660;2022-08-01T09:06:35;0.90;;;0.63;;
13114;SDS011;6623;52.120;8.660;2022-08-01T09:09:01;1.67;;;0.80;;
13114;SDS011;6623;52.120;8.660;2022-08-01T09:11:27;0.60;;;0.60;;
13114;SDS011;6623;52.120;8.660;2022-08-01T09:14:03;1.10;;;0.80;;
13114;SDS011;6623;52.120;8.660;2022-08-01T09:16:30;3.17;;;0.73;;
13114;SDS011;6623;52.120;8.660;2022-08-01T09:19:06;3.13;;;0.70;;
13114;SDS011;6623;52.120;8.660;2022-08-01T09:21:39;1.63;;;0.80;;
13114;SDS011;6623;52.120;8.660;2022-08-01T09:24:15;1.23;;;0.90;;
13114;SDS011;6623;52.120;8.660;2022-08-01T09:26:42;1.87;;;0.80;;
13114;SDS011;6623;52.120;8.660;2022-08-01T09:29:24;1.43;;;0.70;;
13114;SDS011;6623;52.120;8.660;2022-08-01T09:31:51;0.87;;;0.70;;
13114;SDS011;6623;52.120;8.660;2022-08-01T09:34:24;1.87;;;1.03;;
13114;SDS011;6623;52.120;8.660;2022-08-01T09:36:51;0.70;;;0.63;;
13114;SDS011;6623;52.120;8.660;2022-08-01T09:39:19;0.93;;;0.80;;
13114;SDS011;6623;52.120;8.660;2022-08-01T09:41:49;2.13;;;0.60;;
13114;SDS011;6623;52.120;8.660;2022-08-01T09:44:16;1.97;;;1.00;;
13114;SDS011;6623;52.120;8.660;2022-08-01T09:46:49;1.70;;;0.90;;
13114;SDS011;6623;52.120;8.660;2022-08-01T09:49:15;2.63;;;0.77;;
13114;SDS011;6623;52.120;8.660;2022-08-01T09:51:52;2.20;;;0.60;;
13114;SDS011;6623;52.120;8.660;2022-08-01T09:54:27;1.10;;;0.70;;
13114;SDS011;6623;52.120;8.660;2022-08-01T09:56:53;0.97;;;0.87;;
13114;SDS011;6623;52.120;8.660;2022-08-01T09:59:19;2.53;;;0.87;;
13114;SDS011;6623;52.120;8.660;2022-08-01T10:01:46;2.00;;;0.80;;
13114;SDS011;6623;52.120;8.660;2022-08-01T10:04:20;1.07;;;0.70;;
13114;SDS011;6623;52.120;8.660;2022-08-01T10:06:47;2.27;;;0.83;;
13114;SDS011;6623;52.120;8.660;2022-08-01T10:09:31;2.87;;;0.97;;
13114;SDS011;6623;52.120;8.660;2022-08-01T10:11:58;2.07;;;0.90;;
13114;SDS011;6623;52.120;8.660;2022-08-01T10:14:31;1.70;;;0.90;;
13114;SDS011;6623;52.120;8.660;2022-08-01T10:17:00;1.83;;;0.80;;
13114;SDS011;6623;52.120;8.660;2022-08-01T10:19:27;0.83;;;0.67;;
13114;SDS011;6623;52.120;8.660;2022-08-01T10:21:54;2.77;;;0.87;;
13114;SDS011;6623;52.120;8.660;2022-08-01T10:24:21;1.17;;;1.00;;
13114;SDS011;6623;52.120;8.660;2022-08-01T10:26:47;1.00;;;0.90;;
13114;SDS011;6623;52.120;8.660;2022-08-01T10:29:16;1.53;;;0.90;;
13114;SDS011;6623;52.120;8.660;2022-08-01T10:31:44;4.20;;;1.00;;
13114;SDS011;6623;52.120;8.660;2022-08-01T10:34:10;1.37;;;1.00;;
13114;SDS011;6623;52.120;8.660;2022-08-01T10:36:36;3.27;;;1.00;;
13114;SDS011;6623;52.120;8.660;2022-08-01T10:39:06;1.60;;;1.07;;
13114;SDS011;6623;52.120;8.660;2022-08-01T10:41:33;1.17;;;1.07;;
13114;SDS011;6623;52.120;8.660;2022-08-01T10:44:03;1.80;;;1.27;;
13114;SDS011;6623;52.120;8.660;2022-08-01T10:46:30;2.77;;;1.23;;
13114;SDS011;6623;52.120;8.660;2022-08-01T10:48:57;4.43;;;1.20;;
13114;SDS011;6623;52.120;8.660;2022-08-01T10:51:24;2.03;;;1.30;;
13114;SDS011;6623;52.120;8.660;2022-08-01T10:53:51;2.57;;;1.23;;
13114;SDS011;6623;52.120;8.660;2022-08-01T10:56:37;2.50;;;1.40;;
13114;SDS011;6623;52.120;8.660;2022-08-01T10:59:04;1.90;;;1.17;;
13114;SDS011;6623;52.120;8.660;2022-08-01T11:01:33;1.73;;;1.30;;
13114;SDS011;6623;52.120;8.660;2022-08-01T11:09:02;2.83;;;1.80;;
13114;SDS011;6623;52.120;8.660;2022-08-01T11:11:28;3.20;;;1.70;;
13114;SDS011;6623;52.120;8.660;2022-08-01T11:16:30;3.27;;;1.70;;
13114;SDS011;6623;52.120;8.660;2022-08-01T11:19:03;3.97;;;1.93;;
13114;SDS011;6623;52.120;8.660;2022-08-01T11:27:15;4.27;;;2.10;;
13114;SDS011;6623;52.120;8.660;2022-08-01T11:30:21;2.27;;;1.90;;
13114;SDS011;6623;52.120;8.660;2022-08-01T11:32:30;2.53;;;2.00;;
13114;SDS011;6623;52.120;8.660;2022-08-01T11:34:59;3.90;;;2.10;;
13114;SDS011;6623;52.120;8.660;2022-08-01T11:37:25;6.00;;;2.47;;
13114;SDS011;6623;52.120;8.660;2022-08-01T11:42:36;4.70;;;2.40;;
13114;SDS011;6623;52.120;8.660;2022-08-01T11:45:02;3.40;;;2.30;;
13114;SDS011;6623;52.120;8.660;2022-08-01T11:47:47;3.17;;;2.70;;
13114;SDS011;6623;52.120;8.660;2022-08-01T11:53:15;3.43;;;2.70;;
13114;SDS011;6623;52.120;8.660;2022-08-01T11:55:51;3.87;;;2.83;;
13114;SDS011;6623;52.120;8.660;2022-08-01T11:58:22;2.70;;;2.47;;
13114;SDS011;6623;52.120;8.660;2022-08-01T12:00:54;3.55;;;2.78;;
13114;SDS011;6623;52.120;8.660;2022-08-01T12:03:25;2.88;;;2.30;;
13114;SDS011;6623;52.120;8.660;2022-08-01T12:05:52;3.40;;;2.63;;
13114;SDS011;6623;52.120;8.660;2022-08-01T12:08:28;2.65;;;2.38;;
13114;SDS011;6623;52.120;8.660;2022-08-01T12:10:58;2.70;;;2.22;;
13114;SDS011;6623;52.120;8.660;2022-08-01T12:13:24;2.33;;;2.00;;
13114;SDS011;6623;52.120;8.660;2022-08-01T12:15:53;2.30;;;2.10;;
13114;SDS011;6623;52.120;8.660;2022-08-01T12:18:22;2.47;;;1.98;;
13114;SDS011;6623;52.120;8.660;2022-08-01T12:20:48;2.47;;;1.92;;
13114;SDS011;6623;52.120;8.660;2022-08-01T12:23:15;2.75;;;2.10;;
13114;SDS011;6623;52.120;8.660;2022-08-01T12:25:41;3.40;;;2.17;;
13114;SDS011;6623;52.120;8.660;2022-08-01T12:28:12;2.95;;;2.45;;
13114;SDS011;6623;52.120;8.660;2022-08-01T12:30:38;4.20;;;2.10;;
13114;SDS011;6623;52.120;8.660;2022-08-01T12:33:09;7.15;;;2.40;;
13114;SDS011;6623;52.120;8.660;2022-08-01T12:35:37;5.83;;;2.10;;
13114;SDS011;6623;52.120;8.660;2022-08-01T12:38:05;3.33;;;2.10;;
13114;SDS011;6623;52.120;8.660;2022-08-01T12:40:32;3.65;;;2.20;;
13114;SDS011;6623;52.120;8.660;2022-08-01T12:45:37;4.78;;;1.92;;
13114;SDS011;6623;52.120;8.660;2022-08-01T12:48:17;5.93;;;2.00;;
13114;SDS011;6623;52.120;8.660;2022-08-01T12:50:52;5.27;;;1.97;;
13114;SDS011;6623;52.120;8.660;2022-08-01T12:53:18;6.17;;;1.93;;
13114;SDS011;6623;52.120;8.660;2022-08-01T12:55:45;2.72;;;1.90;;
13114;SDS011;6623;52.120;8.660;2022-08-01T12:58:15;4.07;;;2.07;;
13114;SDS011;6623;52.120;8.660;2022-08-01T13:00:42;2.97;;;1.73;;
13114;SDS011;6623;52.120;8.660;2022-08-01T13:03:27;2.20;;;1.80;;
13114;SDS011;6623;52.120;8.660;2022-08-01T13:05:54;5.40;;;2.00;;
13114;SDS011;6623;52.120;8.660;2022-08-01T13:08:33;3.93;;;1.90;;
13114;SDS011;6623;52.120;8.660;2022-08-01T13:11:00;2.47;;;1.50;;
13114;SDS011;6623;52.120;8.660;2022-08-01T13:13:34;3.03;;;1.65;;
13114;SDS011;6623;52.120;8.660;2022-08-01T13:16:09;6.90;;;1.80;;
13114;SDS011;6623;52.120;8.660;2022-08-01T13:18:35;6.22;;;1.83;;
13114;SDS011;6623;52.120;8.660;2022-08-01T13:24:10;2.75;;;1.73;;
13114;SDS011;6623;52.120;8.660;2022-08-01T13:26:44;3.88;;;1.65;;
13114;SDS011;6623;52.120;8.660;2022-08-01T13:29:11;3.13;;;1.77;;
13114;SDS011;6623;52.120;8.660;2022-08-01T13:31:38;3.45;;;1.63;;
13114;SDS011;6623;52.120;8.660;2022-08-01T13:34:04;3.80;;;1.70;;
13114;SDS011;6623;52.120;8.660;2022-08-01T13:36:31;5.03;;;1.70;;
13114;SDS011;6623;52.120;8.660;2022-08-01T13:38:57;2.22;;;1.50;;
13114;SDS011;6623;52.120;8.660;2022-08-01T13:41:42;3.23;;;1.37;;
13114;SDS011;6623;52.120;8.660;2022-08-01T13:44:09;3.15;;;1.52;;
13114;SDS011;6623;52.120;8.660;2022-08-01T13:46:36;2.33;;;1.52;;
13114;SDS011;6623;52.120;8.660;2022-08-01T13:49:03;3.38;;;1.60;;
13114;SDS011;6623;52.120;8.660;2022-08-01T13:51:32;2.35;;;1.45;;
13114;SDS011;6623;52.120;8.660;2022-08-01T13:54:02;5.18;;;1.80;;
13114;SDS011;6623;52.120;8.660;2022-08-01T13:56:30;3.45;;;1.58;;
13114;SDS011;6623;52.120;8.660;2022-08-01T13:59:02;3.88;;;1.80;;
13114;SDS011;6623;52.120;8.660;2022-08-01T14:01:28;3.25;;;1.60;;
13114;SDS011;6623;52.120;8.660;2022-08-01T14:03:54;2.67;;;1.42;;
13114;SDS011;6623;52.120;8.660;2022-08-01T14:06:20;5.95;;;2.05;;
13114;SDS011;6623;52.120;8.660;2022-08-01T14:08:47;2.65;;;1.50;;
13114;SDS011;6623;52.120;8.660;2022-08-01T14:11:13;6.47;;;2.20;;
13114;SDS011;6623;52.120;8.660;2022-08-01T14:13:39;3.90;;;1.55;;
13114;SDS011;6623;52.120;8.660;2022-08-01T14:16:05;2.58;;;1.40;;
13114;SDS011;6623;52.120;8.660;2022-08-01T14:18:34;1.80;;;1.70;;
13114;SDS011;6623;52.120;8.660;2022-08-01T14:21:00;4.07;;;1.63;;
13114;SDS011;6623;52.120;8.660;2022-08-01T14:23:26;2.55;;;1.60;;
13114;SDS011;6623;52.120;8.660;2022-08-01T14:25:52;6.10;;;1.75;;
13114;SDS011;6623;52.120;8.660;2022-08-01T14:28:21;5.35;;;2.10;;
13114;SDS011;6623;52.120;8.660;2022-08-01T14:30:48;8.05;;;1.90;;
13114;SDS011;6623;52.120;8.660;2022-08-01T14:33:23;4.65;;;2.13;;
13114;SDS011;6623;52.120;8.660;2022-08-01T14:35:49;2.80;;;1.77;;
13114;SDS011;6623;52.120;8.660;2022-08-01T14:38:21;2.75;;;2.20;;
13114;SDS011;6623;52.120;8.660;2022-08-01T14:40:47;9.88;;;1.92;;
13114;SDS011;6623;52.120;8.660;2022-08-01T14:43:16;2.97;;;1.67;;
13114;SDS011;6623;52.120;8.660;2022-08-01T14:45:42;8.38;;;1.95;;
13114;SDS011;6623;52.120;8.660;2022-08-01T14:48:08;4.82;;;1.80;;
13114;SDS011;6623;52.120;8.660;2022-08-01T14:50:34;4.78;;;1.95;;
13114;SDS011;6623;52.120;8.660;2022-08-01T14:53:09;4.90;;;1.85;;
13114;SDS011;6623;52.120;8.660;2022-08-01T14:55:35;4.47;;;1.90;;
13114;SDS011;6623;52.120;8.660;2022-08-01T14:58:01;5.10;;;1.90;;
13114;SDS011;6623;52.120;8.660;2022-08-01T15:00:33;4.07;;;1.83;;
13114;SDS011;6623;52.120;8.660;2022-08-01T15:03:02;4.80;;;1.58;;
13114;SDS011;6623;52.120;8.660;2022-08-01T15:05:28;4.68;;;1.73;;
13114;SDS011;6623;52.120;8.660;2022-08-01T15:07:58;5.97;;;2.00;;
13114;SDS011;6623;52.120;8.660;2022-08-01T15:10:24;9.17;;;2.57;;
13114;SDS011;6623;52.120;8.660;2022-08-01T15:12:50;3.55;;;1.73;;
13114;SDS011;6623;52.120;8.660;2022-08-01T15:15:16;5.32;;;1.60;;
13114;SDS011;6623;52.120;8.660;2022-08-01T15:17:45;6.65;;;2.10;;
13114;SDS011;6623;52.120;8.660;2022-08-01T15:20:11;5.20;;;1.90;;
13114;SDS011;6623;52.120;8.660;2022-08-01T15:22:37;5.95;;;1.90;;
13114;SDS011;6623;52.120;8.660;2022-08-01T15:25:03;5.88;;;1.80;;
13114;SDS011;6623;52.120;8.660;2022-08-01T15:27:29;7.85;;;1.95;;
13114;SDS011;6623;52.120;8.660;2022-08-01T15:29:56;6.00;;;1.80;;
13114;SDS011;6623;52.120;8.660;2022-08-01T15:32:25;5.55;;;1.98;;
13114;SDS011;6623;52.120;8.660;2022-08-01T15:34:51;5.75;;;2.00;;
13114;SDS011;6623;52.120;8.660;2022-08-01T15:37:17;9.40;;;1.80;;
13114;SDS011;6623;52.120;8.660;2022-08-01T15:39:43;7.72;;;1.73;;
13114;SDS011;6623;52.120;8.660;2022-08-01T15:42:10;5.37;;;2.10;;